sensor_id;sensor_type;location;lat;lon;timestamp;P1;durP1;ratioP1;P2;durP2;ratioP2
6207;SDS011;3137;51.550;7.060;2023-04-24T00:02:12;1.80;;;1.40;;
6207;SDS011;3137;51.550;7.060;2023-04-24T00:04:39;1.30;;;1.30;;
6207;SDS011;3137;51.550;7.060;2023-04-24T00:07:11;1.80;;;1.80;;
6207;SDS011;3137;51.550;7.060;2023-04-24T00:09:38;2.17;;;2.17;;
6207;SDS011;3137;51.550;7.060;2023-04-24T00:12:05;1.73;;;1.73;;
6207;SDS011;3137;51.550;7.060;2023-04-24T00:14:32;1.73;;;1.73;;
6207;SDS011;3137;51.550;7.060;2023-04-24T00:16:58;2.30;;;2.30;;
6207;SDS011;3137;51.550;7.060;2023-04-24T00:19:25;2.10;;;2.00;;
6207;SDS011;3137;51.550;7.060;2023-04-24T00:21:51;2.07;;;2.07;;
6207;SDS011;3137;51.550;7.060;2023-04-24T00:24:18;5.10;;;1.90;;
6207;SDS011;3137;51.550;7.060;2023-04-24T00:26:44;2.53;;;2.10;;
6207;SDS011;3137;51.550;7.060;2023-04-24T00:29:11;2.20;;;2.20;;
6207;SDS011;3137;51.550;7.060;2023-04-24T00:31:37;1.80;;;1.80;;
6207;SDS011;3137;51.550;7.060;2023-04-24T00:34:04;1.80;;;1.80;;
6207;SDS011;3137;51.550;7.060;2023-04-24T00:36:31;2.63;;;2.63;;
6207;SDS011;3137;51.550;7.060;2023-04-24T00:38:58;2.50;;;2.40;;
6207;SDS011;3137;51.550;7.060;2023-04-24T00:41:25;3.33;;;2.97;;
6207;SDS011;3137;51.550;7.060;2023-04-24T00:43:51;2.20;;;2.20;;
6207;SDS011;3137;51.550;7.060;2023-04-24T00:46:18;4.53;;;2.40;;
6207;SDS011;3137;51.550;7.060;2023-04-24T00:48:45;2.63;;;2.63;;
6207;SDS011;3137;51.550;7.060;2023-04-24T00:51:12;2.37;;;2.37;;
6207;SDS011;3137;51.550;7.060;2023-04-24T00:53:39;1.90;;;1.90;;
6207;SDS011;3137;51.550;7.060;2023-04-24T00:56:05;2.53;;;2.43;;
6207;SDS011;3137;51.550;7.060;2023-04-24T00:58:32;2.27;;;2.20;;
6207;SDS011;3137;51.550;7.060;2023-04-24T01:00:58;2.50;;;2.50;;
6207;SDS011;3137;51.550;7.060;2023-04-24T01:03:31;2.63;;;2.53;;
6207;SDS011;3137;51.550;7.060;2023-04-24T01:06:00;2.33;;;2.33;;
6207;SDS011;3137;51.550;7.060;2023-04-24T01:08:28;2.80;;;2.80;;
6207;SDS011;3137;51.550;7.060;2023-04-24T01:10:55;2.50;;;2.40;;
6207;SDS011;3137;51.550;7.060;2023-04-24T01:13:23;3.20;;;3.20;;
6207;SDS011;3137;51.550;7.060;2023-04-24T01:15:50;4.23;;;3.00;;
6207;SDS011;3137;51.550;7.060;2023-04-24T01:18:17;3.23;;;3.13;;
6207;SDS011;3137;51.550;7.060;2023-04-24T01:20:43;5.93;;;3.13;;
6207;SDS011;3137;51.550;7.060;2023-04-24T01:23:11;2.93;;;2.73;;
6207;SDS011;3137;51.550;7.060;2023-04-24T01:25:37;3.57;;;3.47;;
6207;SDS011;3137;51.550;7.060;2023-04-24T01:28:05;2.83;;;2.80;;
6207;SDS011;3137;51.550;7.060;2023-04-24T01:30:31;3.43;;;3.43;;
6207;SDS011;3137;51.550;7.060;2023-04-24T01:32:58;4.50;;;4.30;;
6207;SDS011;3137;51.550;7.060;2023-04-24T01:35:25;4.73;;;4.57;;
6207;SDS011;3137;51.550;7.060;2023-04-24T01:37:52;5.00;;;4.80;;
6207;SDS011;3137;51.550;7.060;2023-04-24T01:40:18;5.40;;;5.30;;
6207;SDS011;3137;51.550;7.060;2023-04-24T01:42:44;6.63;;;6.37;;
6207;SDS011;3137;51.550;7.060;2023-04-24T01:45:11;9.17;;;5.97;;
6207;SDS011;3137;51.550;7.060;2023-04-24T01:47:39;6.13;;;5.83;;
6207;SDS011;3137;51.550;7.060;2023-04-24T01:50:06;6.80;;;6.70;;
6207;SDS011;3137;51.550;7.060;2023-04-24T01:52:33;7.40;;;7.10;;
6207;SDS011;3137;51.550;7.060;2023-04-24T01:55:01;7.23;;;6.87;;
6207;SDS011;3137;51.550;7.060;2023-04-24T01:57:30;7.83;;;7.33;;
6207;SDS011;3137;51.550;7.060;2023-04-24T01:59:57;6.87;;;6.77;;
6207;SDS011;3137;51.550;7.060;2023-04-24T02:02:23;6.60;;;6.20;;
6207;SDS011;3137;51.550;7.060;2023-04-24T02:04:50;6.37;;;6.00;;
6207;SDS011;3137;51.550;7.060;2023-04-24T02:07:16;6.33;;;6.23;;
6207;SDS011;3137;51.550;7.060;2023-04-24T02:09:43;6.13;;;6.03;;
6207;SDS011;3137;51.550;7.060;2023-04-24T02:12:10;7.70;;;7.20;;
6207;SDS011;3137;51.550;7.060;2023-04-24T02:14:36;6.33;;;6.23;;
6207;SDS011;3137;51.550;7.060;2023-04-24T02:17:02;6.87;;;6.30;;
6207;SDS011;3137;51.550;7.060;2023-04-24T02:19:29;5.70;;;5.60;;
6207;SDS011;3137;51.550;7.060;2023-04-24T02:21:56;6.17;;;5.43;;
6207;SDS011;3137;51.550;7.060;2023-04-24T02:24:22;6.10;;;5.80;;
6207;SDS011;3137;51.550;7.060;2023-04-24T02:26:49;7.47;;;6.93;;
6207;SDS011;3137;51.550;7.060;2023-04-24T02:29:15;7.93;;;7.53;;
6207;SDS011;3137;51.550;7.060;2023-04-24T02:31:42;7.67;;;7.27;;
6207;SDS011;3137;51.550;7.060;2023-04-24T02:34:08;10.93;;;7.60;;
6207;SDS011;3137;51.550;7.060;2023-04-24T02:36:35;8.40;;;7.87;;
6207;SDS011;3137;51.550;7.060;2023-04-24T02:39:02;9.73;;;8.97;;
6207;SDS011;3137;51.550;7.060;2023-04-24T02:41:31;8.77;;;8.17;;
6207;SDS011;3137;51.550;7.060;2023-04-24T02:43:58;8.57;;;7.97;;
6207;SDS011;3137;51.550;7.060;2023-04-24T02:46:25;7.77;;;7.30;;
6207;SDS011;3137;51.550;7.060;2023-04-24T02:48:52;9.40;;;8.13;;
6207;SDS011;3137;51.550;7.060;2023-04-24T02:51:18;10.03;;;9.17;;
6207;SDS011;3137;51.550;7.060;2023-04-24T02:53:45;12.33;;;10.47;;
6207;SDS011;3137;51.550;7.060;2023-04-24T02:56:11;9.33;;;8.50;;
6207;SDS011;3137;51.550;7.060;2023-04-24T02:58:40;10.60;;;9.50;;
6207;SDS011;3137;51.550;7.060;2023-04-24T03:01:08;10.00;;;9.30;;
6207;SDS011;3137;51.550;7.060;2023-04-24T03:03:36;11.07;;;10.07;;
6207;SDS011;3137;51.550;7.060;2023-04-24T03:06:04;10.77;;;9.90;;
6207;SDS011;3137;51.550;7.060;2023-04-24T03:08:34;10.50;;;9.60;;
6207;SDS011;3137;51.550;7.060;2023-04-24T03:11:01;12.10;;;10.90;;
6207;SDS011;3137;51.550;7.060;2023-04-24T03:13:27;10.27;;;9.67;;
6207;SDS011;3137;51.550;7.060;2023-04-24T03:15:53;12.00;;;11.20;;
6207;SDS011;3137;51.550;7.060;2023-04-24T03:18:20;11.67;;;10.63;;
6207;SDS011;3137;51.550;7.060;2023-04-24T03:20:49;11.47;;;10.50;;
6207;SDS011;3137;51.550;7.060;2023-04-24T03:23:16;12.13;;;10.97;;
6207;SDS011;3137;51.550;7.060;2023-04-24T03:25:42;11.83;;;10.83;;
6207;SDS011;3137;51.550;7.060;2023-04-24T03:28:11;11.90;;;11.03;;
6207;SDS011;3137;51.550;7.060;2023-04-24T03:30:41;15.27;;;11.67;;
6207;SDS011;3137;51.550;7.060;2023-04-24T03:33:08;12.50;;;11.50;;
6207;SDS011;3137;51.550;7.060;2023-04-24T03:35:41;14.17;;;11.67;;
6207;SDS011;3137;51.550;7.060;2023-04-24T03:38:10;14.17;;;12.77;;
6207;SDS011;3137;51.550;7.060;2023-04-24T03:40:59;20.17;;;12.83;;
6207;SDS011;3137;51.550;7.060;2023-04-24T03:43:35;13.40;;;12.20;;
6207;SDS011;3137;51.550;7.060;2023-04-24T03:46:02;14.70;;;12.90;;
6207;SDS011;3137;51.550;7.060;2023-04-24T03:48:33;18.07;;;13.00;;
6207;SDS011;3137;51.550;7.060;2023-04-24T03:50:59;15.43;;;13.83;;
6207;SDS011;3137;51.550;7.060;2023-04-24T03:53:28;15.27;;;13.37;;
6207;SDS011;3137;51.550;7.060;2023-04-24T03:55:55;21.10;;;15.90;;
6207;SDS011;3137;51.550;7.060;2023-04-24T03:58:22;15.77;;;12.90;;
6207;SDS011;3137;51.550;7.060;2023-04-24T04:00:49;14.93;;;13.47;;
6207;SDS011;3137;51.550;7.060;2023-04-24T04:03:35;14.13;;;12.83;;
6207;SDS011;3137;51.550;7.060;2023-04-24T04:06:03;14.47;;;13.27;;
6207;SDS011;3137;51.550;7.060;2023-04-24T04:08:29;18.00;;;13.87;;
6207;SDS011;3137;51.550;7.060;2023-04-24T04:10:56;21.37;;;12.93;;
6207;SDS011;3137;51.550;7.060;2023-04-24T04:13:23;16.13;;;13.20;;
6207;SDS011;3137;51.550;7.060;2023-04-24T04:15:49;13.27;;;11.97;;
6207;SDS011;3137;51.550;7.060;2023-04-24T04:18:17;17.40;;;13.43;;
6207;SDS011;3137;51.550;7.060;2023-04-24T04:20:44;14.23;;;12.93;;
6207;SDS011;3137;51.550;7.060;2023-04-24T04:23:12;14.53;;;13.07;;
6207;SDS011;3137;51.550;7.060;2023-04-24T04:25:49;18.63;;;14.03;;
6207;SDS011;3137;51.550;7.060;2023-04-24T04:28:17;20.00;;;13.37;;
6207;SDS011;3137;51.550;7.060;2023-04-24T04:30:46;14.97;;;13.43;;
6207;SDS011;3137;51.550;7.060;2023-04-24T04:33:13;17.73;;;13.47;;
6207;SDS011;3137;51.550;7.060;2023-04-24T04:35:40;15.43;;;13.77;;
6207;SDS011;3137;51.550;7.060;2023-04-24T04:38:08;13.73;;;12.37;;
6207;SDS011;3137;51.550;7.060;2023-04-24T04:40:57;15.90;;;12.97;;
6207;SDS011;3137;51.550;7.060;2023-04-24T04:43:28;14.10;;;12.67;;
6207;SDS011;3137;51.550;7.060;2023-04-24T04:45:54;12.90;;;11.50;;
6207;SDS011;3137;51.550;7.060;2023-04-24T04:48:42;14.63;;;13.10;;
6207;SDS011;3137;51.550;7.060;2023-04-24T04:51:09;15.40;;;13.73;;
6207;SDS011;3137;51.550;7.060;2023-04-24T04:53:35;13.70;;;12.37;;
6207;SDS011;3137;51.550;7.060;2023-04-24T04:56:02;13.53;;;12.37;;
6207;SDS011;3137;51.550;7.060;2023-04-24T04:58:34;13.13;;;12.10;;
6207;SDS011;3137;51.550;7.060;2023-04-24T05:01:02;13.17;;;12.27;;
6207;SDS011;3137;51.550;7.060;2023-04-24T05:03:36;16.13;;;12.90;;
6207;SDS011;3137;51.550;7.060;2023-04-24T05:06:07;12.77;;;11.77;;
6207;SDS011;3137;51.550;7.060;2023-04-24T05:08:36;12.77;;;11.57;;
6207;SDS011;3137;51.550;7.060;2023-04-24T05:11:06;18.70;;;11.90;;
6207;SDS011;3137;51.550;7.060;2023-04-24T05:13:32;14.63;;;11.80;;
6207;SDS011;3137;51.550;7.060;2023-04-24T05:16:24;12.83;;;11.67;;
6207;SDS011;3137;51.550;7.060;2023-04-24T05:18:52;13.37;;;12.23;;
6207;SDS011;3137;51.550;7.060;2023-04-24T05:21:25;12.00;;;10.77;;
6207;SDS011;3137;51.550;7.060;2023-04-24T05:23:53;12.33;;;11.03;;
6207;SDS011;3137;51.550;7.060;2023-04-24T05:26:40;12.07;;;10.90;;
6207;SDS011;3137;51.550;7.060;2023-04-24T05:29:07;11.17;;;10.40;;
6207;SDS011;3137;51.550;7.060;2023-04-24T05:31:33;13.17;;;11.77;;
6207;SDS011;3137;51.550;7.060;2023-04-24T05:34:00;12.67;;;11.80;;
6207;SDS011;3137;51.550;7.060;2023-04-24T05:36:27;11.67;;;10.57;;
6207;SDS011;3137;51.550;7.060;2023-04-24T05:38:54;11.57;;;10.77;;
6207;SDS011;3137;51.550;7.060;2023-04-24T05:41:20;11.40;;;10.63;;
6207;SDS011;3137;51.550;7.060;2023-04-24T05:43:47;11.30;;;10.33;;
6207;SDS011;3137;51.550;7.060;2023-04-24T05:46:13;11.57;;;10.37;;
6207;SDS011;3137;51.550;7.060;2023-04-24T05:48:40;11.57;;;10.70;;
6207;SDS011;3137;51.550;7.060;2023-04-24T05:51:06;12.70;;;11.40;;
6207;SDS011;3137;51.550;7.060;2023-04-24T05:53:33;14.33;;;12.83;;
6207;SDS011;3137;51.550;7.060;2023-04-24T05:55:59;13.00;;;12.00;;
6207;SDS011;3137;51.550;7.060;2023-04-24T05:58:26;12.60;;;11.40;;
6207;SDS011;3137;51.550;7.060;2023-04-24T06:00:53;19.60;;;11.77;;
6207;SDS011;3137;51.550;7.060;2023-04-24T06:03:20;13.23;;;11.07;;
6207;SDS011;3137;51.550;7.060;2023-04-24T06:05:47;13.47;;;12.37;;
6207;SDS011;3137;51.550;7.060;2023-04-24T06:08:16;12.50;;;11.57;;
6207;SDS011;3137;51.550;7.060;2023-04-24T06:10:44;13.63;;;11.60;;
6207;SDS011;3137;51.550;7.060;2023-04-24T06:13:11;16.87;;;13.07;;
6207;SDS011;3137;51.550;7.060;2023-04-24T06:15:43;13.00;;;11.77;;
6207;SDS011;3137;51.550;7.060;2023-04-24T06:18:15;12.03;;;10.93;;
6207;SDS011;3137;51.550;7.060;2023-04-24T06:20:42;12.17;;;11.23;;
6207;SDS011;3137;51.550;7.060;2023-04-24T06:23:08;13.23;;;12.27;;
6207;SDS011;3137;51.550;7.060;2023-04-24T06:25:35;11.37;;;10.67;;
6207;SDS011;3137;51.550;7.060;2023-04-24T06:28:02;10.57;;;9.90;;
6207;SDS011;3137;51.550;7.060;2023-04-24T06:30:29;11.07;;;10.37;;
6207;SDS011;3137;51.550;7.060;2023-04-24T06:32:56;11.40;;;10.43;;
6207;SDS011;3137;51.550;7.060;2023-04-24T06:35:35;10.00;;;9.27;;
6207;SDS011;3137;51.550;7.060;2023-04-24T06:38:02;10.53;;;9.63;;
6207;SDS011;3137;51.550;7.060;2023-04-24T06:40:28;10.00;;;9.27;;
6207;SDS011;3137;51.550;7.060;2023-04-24T06:42:55;10.63;;;9.93;;
6207;SDS011;3137;51.550;7.060;2023-04-24T06:45:21;10.57;;;9.67;;
6207;SDS011;3137;51.550;7.060;2023-04-24T06:47:48;10.40;;;9.53;;
6207;SDS011;3137;51.550;7.060;2023-04-24T06:50:14;11.10;;;10.20;;
6207;SDS011;3137;51.550;7.060;2023-04-24T06:52:41;10.43;;;9.77;;
6207;SDS011;3137;51.550;7.060;2023-04-24T06:55:07;11.03;;;10.30;;
6207;SDS011;3137;51.550;7.060;2023-04-24T06:57:34;9.87;;;9.37;;
6207;SDS011;3137;51.550;7.060;2023-04-24T07:00:01;10.97;;;10.17;;
6207;SDS011;3137;51.550;7.060;2023-04-24T07:02:27;10.87;;;10.17;;
6207;SDS011;3137;51.550;7.060;2023-04-24T07:04:54;9.43;;;9.03;;
6207;SDS011;3137;51.550;7.060;2023-04-24T07:07:21;11.30;;;9.27;;
6207;SDS011;3137;51.550;7.060;2023-04-24T07:09:50;8.43;;;8.20;;
6207;SDS011;3137;51.550;7.060;2023-04-24T07:12:16;10.03;;;9.43;;
6207;SDS011;3137;51.550;7.060;2023-04-24T07:14:46;8.90;;;8.50;;
6207;SDS011;3137;51.550;7.060;2023-04-24T07:17:12;8.67;;;8.40;;
6207;SDS011;3137;51.550;7.060;2023-04-24T07:19:39;8.50;;;8.10;;
6207;SDS011;3137;51.550;7.060;2023-04-24T07:22:06;7.97;;;7.67;;
6207;SDS011;3137;51.550;7.060;2023-04-24T07:24:32;7.50;;;7.03;;
6207;SDS011;3137;51.550;7.060;2023-04-24T07:26:59;7.30;;;7.10;;
6207;SDS011;3137;51.550;7.060;2023-04-24T07:29:27;7.37;;;7.00;;
6207;SDS011;3137;51.550;7.060;2023-04-24T07:31:53;6.63;;;6.47;;
6207;SDS011;3137;51.550;7.060;2023-04-24T07:34:20;6.67;;;6.47;;
6207;SDS011;3137;51.550;7.060;2023-04-24T07:36:46;6.53;;;5.90;;
6207;SDS011;3137;51.550;7.060;2023-04-24T07:39:13;6.50;;;6.40;;
6207;SDS011;3137;51.550;7.060;2023-04-24T07:41:39;5.77;;;5.53;;
6207;SDS011;3137;51.550;7.060;2023-04-24T07:44:06;6.07;;;5.77;;
6207;SDS011;3137;51.550;7.060;2023-04-24T07:46:32;5.90;;;5.60;;
6207;SDS011;3137;51.550;7.060;2023-04-24T07:48:59;6.77;;;6.40;;
6207;SDS011;3137;51.550;7.060;2023-04-24T07:51:38;4.97;;;4.90;;
6207;SDS011;3137;51.550;7.060;2023-04-24T07:54:05;4.17;;;4.17;;
6207;SDS011;3137;51.550;7.060;2023-04-24T07:56:32;3.97;;;3.93;;
6207;SDS011;3137;51.550;7.060;2023-04-24T07:58:59;4.83;;;4.73;;
6207;SDS011;3137;51.550;7.060;2023-04-24T08:01:27;5.07;;;4.97;;
6207;SDS011;3137;51.550;7.060;2023-04-24T08:03:53;4.93;;;4.90;;
6207;SDS011;3137;51.550;7.060;2023-04-24T08:06:20;3.90;;;3.90;;
6207;SDS011;3137;51.550;7.060;2023-04-24T08:08:46;4.40;;;3.97;;
6207;SDS011;3137;51.550;7.060;2023-04-24T08:11:13;4.17;;;3.87;;
6207;SDS011;3137;51.550;7.060;2023-04-24T08:13:39;4.70;;;4.30;;
6207;SDS011;3137;51.550;7.060;2023-04-24T08:16:05;3.87;;;3.80;;
6207;SDS011;3137;51.550;7.060;2023-04-24T08:18:32;3.90;;;3.60;;
6207;SDS011;3137;51.550;7.060;2023-04-24T08:20:59;5.57;;;4.40;;
6207;SDS011;3137;51.550;7.060;2023-04-24T08:23:27;3.27;;;3.27;;
6207;SDS011;3137;51.550;7.060;2023-04-24T08:25:55;2.60;;;2.50;;
6207;SDS011;3137;51.550;7.060;2023-04-24T08:28:22;3.20;;;3.20;;
6207;SDS011;3137;51.550;7.060;2023-04-24T08:30:48;3.57;;;3.57;;
6207;SDS011;3137;51.550;7.060;2023-04-24T08:33:21;4.40;;;3.83;;
6207;SDS011;3137;51.550;7.060;2023-04-24T08:35:48;4.00;;;3.90;;
6207;SDS011;3137;51.550;7.060;2023-04-24T08:38:15;4.50;;;4.20;;
6207;SDS011;3137;51.550;7.060;2023-04-24T08:40:42;4.43;;;4.43;;
6207;SDS011;3137;51.550;7.060;2023-04-24T08:43:09;5.53;;;5.13;;
6207;SDS011;3137;51.550;7.060;2023-04-24T08:45:36;6.90;;;5.37;;
6207;SDS011;3137;51.550;7.060;2023-04-24T08:48:04;5.57;;;5.33;;
6207;SDS011;3137;51.550;7.060;2023-04-24T08:50:41;6.23;;;6.10;;
6207;SDS011;3137;51.550;7.060;2023-04-24T08:53:08;7.47;;;6.73;;
6207;SDS011;3137;51.550;7.060;2023-04-24T08:55:35;6.50;;;6.30;;
6207;SDS011;3137;51.550;7.060;2023-04-24T08:58:03;7.57;;;7.27;;
6207;SDS011;3137;51.550;7.060;2023-04-24T09:00:30;7.40;;;6.83;;
6207;SDS011;3137;51.550;7.060;2023-04-24T09:03:00;6.53;;;6.33;;
6207;SDS011;3137;51.550;7.060;2023-04-24T09:05:26;7.40;;;6.97;;
6207;SDS011;3137;51.550;7.060;2023-04-24T09:07:54;5.30;;;5.20;;
6207;SDS011;3137;51.550;7.060;2023-04-24T09:10:23;5.80;;;4.67;;
6207;SDS011;3137;51.550;7.060;2023-04-24T09:12:51;4.23;;;3.90;;
6207;SDS011;3137;51.550;7.060;2023-04-24T09:15:19;3.47;;;3.37;;
6207;SDS011;3137;51.550;7.060;2023-04-24T09:17:46;4.27;;;3.93;;
6207;SDS011;3137;51.550;7.060;2023-04-24T09:20:13;3.43;;;3.43;;
6207;SDS011;3137;51.550;7.060;2023-04-24T09:22:40;2.87;;;2.87;;
6207;SDS011;3137;51.550;7.060;2023-04-24T09:25:08;2.70;;;2.70;;
6207;SDS011;3137;51.550;7.060;2023-04-24T09:27:35;3.37;;;3.37;;
6207;SDS011;3137;51.550;7.060;2023-04-24T09:30:02;3.53;;;2.70;;
6207;SDS011;3137;51.550;7.060;2023-04-24T09:32:29;2.70;;;2.70;;
6207;SDS011;3137;51.550;7.060;2023-04-24T09:35:10;2.57;;;2.57;;
6207;SDS011;3137;51.550;7.060;2023-04-24T09:37:39;2.63;;;2.63;;
6207;SDS011;3137;51.550;7.060;2023-04-24T09:40:19;2.83;;;2.40;;
6207;SDS011;3137;51.550;7.060;2023-04-24T09:42:54;4.07;;;3.97;;
6207;SDS011;3137;51.550;7.060;2023-04-24T09:45:27;4.27;;;4.07;;
6207;SDS011;3137;51.550;7.060;2023-04-24T09:47:55;5.33;;;5.23;;
6207;SDS011;3137;51.550;7.060;2023-04-24T09:50:21;5.73;;;5.50;;
6207;SDS011;3137;51.550;7.060;2023-04-24T09:52:59;5.93;;;5.63;;
6207;SDS011;3137;51.550;7.060;2023-04-24T09:55:32;7.40;;;6.90;;
6207;SDS011;3137;51.550;7.060;2023-04-24T09:57:59;6.07;;;5.97;;
6207;SDS011;3137;51.550;7.060;2023-04-24T10:00:27;7.17;;;6.97;;
6207;SDS011;3137;51.550;7.060;2023-04-24T10:02:59;6.90;;;5.63;;
6207;SDS011;3137;51.550;7.060;2023-04-24T10:05:31;6.43;;;5.97;;
6207;SDS011;3137;51.550;7.060;2023-04-24T10:10:33;6.63;;;6.50;;
6207;SDS011;3137;51.550;7.060;2023-04-24T10:13:03;6.97;;;6.77;;
6207;SDS011;3137;51.550;7.060;2023-04-24T10:15:30;7.30;;;7.00;;
6207;SDS011;3137;51.550;7.060;2023-04-24T10:17:57;7.87;;;7.30;;
6207;SDS011;3137;51.550;7.060;2023-04-24T10:20:26;8.73;;;8.20;;
6207;SDS011;3137;51.550;7.060;2023-04-24T10:22:55;8.13;;;7.73;;
6207;SDS011;3137;51.550;7.060;2023-04-24T10:25:26;7.67;;;7.27;;
6207;SDS011;3137;51.550;7.060;2023-04-24T10:27:54;7.43;;;7.13;;
6207;SDS011;3137;51.550;7.060;2023-04-24T10:30:27;7.53;;;7.30;;
6207;SDS011;3137;51.550;7.060;2023-04-24T10:32:55;8.17;;;7.63;;
6207;SDS011;3137;51.550;7.060;2023-04-24T10:35:22;8.00;;;7.17;;
6207;SDS011;3137;51.550;7.060;2023-04-24T10:38:05;8.33;;;7.47;;
6207;SDS011;3137;51.550;7.060;2023-04-24T10:40:35;7.40;;;7.10;;
6207;SDS011;3137;51.550;7.060;2023-04-24T10:43:03;7.20;;;6.90;;
6207;SDS011;3137;51.550;7.060;2023-04-24T10:45:35;8.37;;;7.70;;
6207;SDS011;3137;51.550;7.060;2023-04-24T10:48:03;8.63;;;7.97;;
6207;SDS011;3137;51.550;7.060;2023-04-24T10:50:45;8.77;;;8.00;;
6207;SDS011;3137;51.550;7.060;2023-04-24T10:53:13;10.97;;;9.70;;
6207;SDS011;3137;51.550;7.060;2023-04-24T10:55:50;11.70;;;8.77;;
6207;SDS011;3137;51.550;7.060;2023-04-24T10:58:21;12.30;;;10.60;;
6207;SDS011;3137;51.550;7.060;2023-04-24T11:00:56;10.87;;;9.77;;
6207;SDS011;3137;51.550;7.060;2023-04-24T11:03:27;19.20;;;9.70;;
6207;SDS011;3137;51.550;7.060;2023-04-24T11:05:57;15.27;;;8.97;;
6207;SDS011;3137;51.550;7.060;2023-04-24T11:08:46;12.37;;;9.10;;
6207;SDS011;3137;51.550;7.060;2023-04-24T11:11:18;20.03;;;10.33;;
6207;SDS011;3137;51.550;7.060;2023-04-24T11:16:27;13.20;;;9.77;;
6207;SDS011;3137;51.550;7.060;2023-04-24T11:21:43;13.90;;;8.13;;
6207;SDS011;3137;51.550;7.060;2023-04-24T11:27:04;15.03;;;8.23;;
6207;SDS011;3137;51.550;7.060;2023-04-24T11:30:01;13.80;;;8.50;;
6207;SDS011;3137;51.550;7.060;2023-04-24T11:37:28;17.73;;;8.10;;
6207;SDS011;3137;51.550;7.060;2023-04-24T11:40:00;13.10;;;7.97;;
6207;SDS011;3137;51.550;7.060;2023-04-24T11:42:28;15.50;;;8.00;;
6207;SDS011;3137;51.550;7.060;2023-04-24T11:44:55;9.10;;;8.17;;
6207;SDS011;3137;51.550;7.060;2023-04-24T11:47:28;8.80;;;8.00;;
6207;SDS011;3137;51.550;7.060;2023-04-24T11:49:56;18.33;;;9.23;;
6207;SDS011;3137;51.550;7.060;2023-04-24T11:52:25;10.07;;;7.97;;
6207;SDS011;3137;51.550;7.060;2023-04-24T11:54:52;11.30;;;6.87;;
6207;SDS011;3137;51.550;7.060;2023-04-24T11:57:19;9.77;;;6.73;;
6207;SDS011;3137;51.550;7.060;2023-04-24T11:59:48;13.57;;;6.90;;
6207;SDS011;3137;51.550;7.060;2023-04-24T12:02:24;12.83;;;6.53;;
6207;SDS011;3137;51.550;7.060;2023-04-24T12:04:53;9.60;;;7.67;;
6207;SDS011;3137;51.550;7.060;2023-04-24T12:07:21;7.17;;;6.57;;
6207;SDS011;3137;51.550;7.060;2023-04-24T12:09:56;7.20;;;6.50;;
6207;SDS011;3137;51.550;7.060;2023-04-24T12:12:25;10.97;;;5.13;;
6207;SDS011;3137;51.550;7.060;2023-04-24T12:14:53;6.83;;;6.13;;
6207;SDS011;3137;51.550;7.060;2023-04-24T12:17:28;9.47;;;5.13;;
6207;SDS011;3137;51.550;7.060;2023-04-24T12:19:57;5.67;;;5.17;;
6207;SDS011;3137;51.550;7.060;2023-04-24T12:22:26;6.17;;;5.77;;
6207;SDS011;3137;51.550;7.060;2023-04-24T12:24:56;5.20;;;5.00;;
6207;SDS011;3137;51.550;7.060;2023-04-24T12:27:30;5.07;;;4.83;;
6207;SDS011;3137;51.550;7.060;2023-04-24T12:29:58;5.97;;;5.20;;
6207;SDS011;3137;51.550;7.060;2023-04-24T12:32:25;9.20;;;5.53;;
6207;SDS011;3137;51.550;7.060;2023-04-24T12:34:53;6.97;;;5.80;;
6207;SDS011;3137;51.550;7.060;2023-04-24T12:37:22;8.23;;;6.67;;
6207;SDS011;3137;51.550;7.060;2023-04-24T12:39:59;6.03;;;5.70;;
6207;SDS011;3137;51.550;7.060;2023-04-24T12:42:30;6.47;;;5.90;;
6207;SDS011;3137;51.550;7.060;2023-04-24T12:45:01;6.50;;;6.10;;
6207;SDS011;3137;51.550;7.060;2023-04-24T12:47:32;7.07;;;6.60;;
6207;SDS011;3137;51.550;7.060;2023-04-24T12:50:00;6.23;;;5.80;;
6207;SDS011;3137;51.550;7.060;2023-04-24T12:52:28;5.77;;;5.50;;
6207;SDS011;3137;51.550;7.060;2023-04-24T12:54:57;6.53;;;5.93;;
6207;SDS011;3137;51.550;7.060;2023-04-24T12:57:25;5.27;;;5.13;;
6207;SDS011;3137;51.550;7.060;2023-04-24T12:59:56;4.60;;;4.40;;
6207;SDS011;3137;51.550;7.060;2023-04-24T13:02:25;5.13;;;4.73;;
6207;SDS011;3137;51.550;7.060;2023-04-24T13:04:53;4.13;;;3.93;;
6207;SDS011;3137;51.550;7.060;2023-04-24T13:07:19;4.37;;;4.13;;
6207;SDS011;3137;51.550;7.060;2023-04-24T13:09:47;3.93;;;3.77;;
6207;SDS011;3137;51.550;7.060;2023-04-24T13:12:14;7.47;;;4.03;;
6207;SDS011;3137;51.550;7.060;2023-04-24T13:14:41;3.93;;;3.80;;
6207;SDS011;3137;51.550;7.060;2023-04-24T13:17:07;4.33;;;4.03;;
6207;SDS011;3137;51.550;7.060;2023-04-24T13:19:35;4.10;;;4.00;;
6207;SDS011;3137;51.550;7.060;2023-04-24T13:22:03;4.27;;;4.20;;
6207;SDS011;3137;51.550;7.060;2023-04-24T13:24:30;4.30;;;4.20;;
6207;SDS011;3137;51.550;7.060;2023-04-24T13:26:57;4.67;;;4.47;;
6207;SDS011;3137;51.550;7.060;2023-04-24T13:29:24;4.43;;;4.17;;
6207;SDS011;3137;51.550;7.060;2023-04-24T13:31:50;4.43;;;4.10;;
6207;SDS011;3137;51.550;7.060;2023-04-24T13:34:17;5.23;;;4.90;;
6207;SDS011;3137;51.550;7.060;2023-04-24T13:36:44;3.57;;;3.47;;
6207;SDS011;3137;51.550;7.060;2023-04-24T13:39:10;5.03;;;4.10;;
6207;SDS011;3137;51.550;7.060;2023-04-24T13:41:37;7.57;;;3.90;;
6207;SDS011;3137;51.550;7.060;2023-04-24T13:44:04;4.27;;;4.23;;
6207;SDS011;3137;51.550;7.060;2023-04-24T13:46:30;5.03;;;4.67;;
6207;SDS011;3137;51.550;7.060;2023-04-24T13:48:57;9.33;;;3.97;;
6207;SDS011;3137;51.550;7.060;2023-04-24T13:51:27;5.30;;;4.97;;
6207;SDS011;3137;51.550;7.060;2023-04-24T13:53:53;6.63;;;3.90;;
6207;SDS011;3137;51.550;7.060;2023-04-24T13:56:20;4.37;;;4.20;;
6207;SDS011;3137;51.550;7.060;2023-04-24T13:58:47;4.73;;;4.17;;
6207;SDS011;3137;51.550;7.060;2023-04-24T14:01:14;4.10;;;3.90;;
6207;SDS011;3137;51.550;7.060;2023-04-24T14:03:41;5.53;;;5.03;;
6207;SDS011;3137;51.550;7.060;2023-04-24T14:06:10;5.13;;;4.73;;
6207;SDS011;3137;51.550;7.060;2023-04-24T14:08:36;3.93;;;3.93;;
6207;SDS011;3137;51.550;7.060;2023-04-24T14:11:03;5.10;;;4.60;;
6207;SDS011;3137;51.550;7.060;2023-04-24T14:13:30;4.37;;;4.13;;
6207;SDS011;3137;51.550;7.060;2023-04-24T14:15:56;4.50;;;4.30;;
6207;SDS011;3137;51.550;7.060;2023-04-24T14:18:23;4.53;;;4.40;;
6207;SDS011;3137;51.550;7.060;2023-04-24T14:20:50;5.03;;;4.80;;
6207;SDS011;3137;51.550;7.060;2023-04-24T14:23:16;4.97;;;4.83;;
6207;SDS011;3137;51.550;7.060;2023-04-24T14:25:44;4.40;;;4.33;;
6207;SDS011;3137;51.550;7.060;2023-04-24T14:28:10;4.87;;;4.47;;
6207;SDS011;3137;51.550;7.060;2023-04-24T14:30:37;5.77;;;4.47;;
6207;SDS011;3137;51.550;7.060;2023-04-24T14:33:03;4.67;;;4.30;;
6207;SDS011;3137;51.550;7.060;2023-04-24T14:35:30;4.60;;;4.17;;
6207;SDS011;3137;51.550;7.060;2023-04-24T14:37:58;6.83;;;4.20;;
6207;SDS011;3137;51.550;7.060;2023-04-24T14:40:25;4.67;;;4.57;;
6207;SDS011;3137;51.550;7.060;2023-04-24T14:43:11;4.57;;;4.47;;
6207;SDS011;3137;51.550;7.060;2023-04-24T14:45:38;5.30;;;5.00;;
6207;SDS011;3137;51.550;7.060;2023-04-24T14:48:06;5.67;;;5.47;;
6207;SDS011;3137;51.550;7.060;2023-04-24T14:50:35;8.10;;;6.70;;
6207;SDS011;3137;51.550;7.060;2023-04-24T14:53:04;6.10;;;5.93;;
6207;SDS011;3137;51.550;7.060;2023-04-24T14:55:31;6.67;;;6.33;;
6207;SDS011;3137;51.550;7.060;2023-04-24T14:57:59;6.03;;;5.67;;
6207;SDS011;3137;51.550;7.060;2023-04-24T15:00:25;7.10;;;6.43;;
6207;SDS011;3137;51.550;7.060;2023-04-24T15:02:52;6.07;;;5.97;;
6207;SDS011;3137;51.550;7.060;2023-04-24T15:05:19;8.23;;;5.40;;
6207;SDS011;3137;51.550;7.060;2023-04-24T15:07:46;11.17;;;4.87;;
6207;SDS011;3137;51.550;7.060;2023-04-24T15:10:12;4.83;;;4.53;;
6207;SDS011;3137;51.550;7.060;2023-04-24T15:12:38;4.57;;;4.47;;
6207;SDS011;3137;51.550;7.060;2023-04-24T15:15:05;5.37;;;4.80;;
6207;SDS011;3137;51.550;7.060;2023-04-24T15:17:32;3.63;;;3.53;;
6207;SDS011;3137;51.550;7.060;2023-04-24T15:19:59;3.97;;;3.57;;
6207;SDS011;3137;51.550;7.060;2023-04-24T15:22:26;3.67;;;3.67;;
6207;SDS011;3137;51.550;7.060;2023-04-24T15:24:53;2.97;;;2.83;;
6207;SDS011;3137;51.550;7.060;2023-04-24T15:27:19;2.50;;;2.50;;
6207;SDS011;3137;51.550;7.060;2023-04-24T15:29:46;4.93;;;3.10;;
6207;SDS011;3137;51.550;7.060;2023-04-24T15:32:12;4.10;;;2.67;;